Date,TemperatureHighF,TemperatureAvgF,TemperatureLowF,DewpointHighF,DewpointAvgF,DewpointLowF,HumidityHigh,HumidityAvg,HumidityLow,PressureMaxIn,PressureMinIn,WindSpeedMaxMPH,WindSpeedAvgMPH,GustSpeedMaxMPH,PrecipitationSumIn
2013-6-1,78.6,59.9,44.1,46.5,39.9,34.9,85,52,24,30.21,29.94,17,2,17,0.00
2013-6-2,75.2,58.3,46.4,45.8,40.3,26.7,92,57,17,29.98,29.88,14,2,14,0.00
2013-6-3,80.5,60.0,44.0,40.7,35.4,27.9,79,46,18,30.01,29.92,11,2,11,0.00
2013-6-4,82.3,63.6,46.7,40.0,33.3,25.9,55,34,17,30.04,29.95,14,1,14,0.00
2013-6-5,88.8,69.5,52.6,48.7,42.1,37.5,66,40,17,30.00,29.86,12,2,12,0.00
2013-6-6,90.6,70.4,55.5,53.3,47.9,41.4,71,48,20,29.92,29.81,12,1,12,0.00
2013-6-7,85.3,68.9,56.0,52.5,47.5,42.3,79,50,23,29.98,29.88,20,3,20,0.00
2013-6-8,90.1,69.6,52.8,49.2,41.6,22.5,80,44,12,29.99,29.90,15,2,15,0.00
2013-6-9,86.0,67.2,54.4,47.7,41.2,30.7,75,43,14,29.93,29.75,17,2,17,0.00
2013-6-10,81.2,60.9,46.2,38.8,35.0,24.7,68,42,17,29.82,29.69,13,2,13,0.00
2013-6-11,66.3,52.6,42.5,39.9,36.8,33.5,79,57,32,30.06,29.80,16,2,16,0.00
2013-6-12,66.6,50.3,37.0,39.0,34.9,31.3,82,58,31,30.11,30.04,17,2,17,0.00
2013-6-13,59.1,48.0,39.5,47.0,36.8,32.2,93,66,45,30.25,30.09,16,3,16,0.14
2013-6-14,76.7,55.9,38.0,40.2,34.5,27.6,87,52,17,30.25,29.98,12,2,12,0.00
2013-6-15,82.3,63.0,45.4,47.8,39.1,27.3,75,46,14,29.98,29.80,18,2,18,0.00
2013-6-16,80.9,63.4,52.0,61.0,46.3,40.5,83,56,26,30.01,29.87,15,1,15,0.16
2013-6-17,78.2,62.1,49.7,49.8,45.7,41.3,85,59,29,30.01,29.81,19,3,19,0.00
2013-6-18,62.8,53.3,46.9,49.6,43.5,36.4,87,70,44,29.90,29.80,14,2,14,0.03
2013-6-19,61.4,49.0,40.9,47.5,40.1,36.2,93,73,44,30.06,29.86,9,1,12,0.10
2013-6-20,64.5,49.7,37.6,41.3,37.0,34.3,91,64,36,30.11,30.02,13,2,15,0.00
2013-6-21,62.4,51.8,43.3,43.5,40.4,37.3,87,66,44,30.13,30.08,11,2,11,0.00
2013-6-22,78.8,60.2,42.8,46.1,41.8,37.7,85,55,25,30.12,29.84,11,2,11,0.00
2013-6-23,62.4,57.7,53.9,56.4,51.7,42.7,97,81,56,29.84,29.61,12,1,12,0.26
2013-6-24,58.0,52.6,48.1,53.7,49.8,46.3,98,90,78,29.72,29.60,11,2,11,0.12
2013-6-25,64.8,56.6,51.2,55.2,48.9,46.1,92,76,59,29.85,29.70,21,5,21,0.04
2013-6-26,67.8,58.9,52.6,59.2,52.7,47.7,90,80,65,30.04,29.85,12,2,12,0.03
2013-6-27,85.2,67.5,50.8,58.1,53.2,49.2,97,65,35,30.11,30.02,15,2,15,0.00
2013-6-28,93.0,73.7,56.3,59.8,55.8,51.7,92,59,26,30.11,29.92,14,2,14,0.00
2013-6-29,89.7,75.7,65.4,60.1,56.2,53.1,73,53,32,29.97,29.85,13,2,13,0.00
2013-6-30,96.5,77.6,60.8,59.5,54.8,50.5,76,49,24,29.92,29.75,12,2,12,0.00